METAR K3S8 251355Z AUTO 00000KT 10SM 19/15 A3001


AIRPORT ID: 3S8

DATE(M/D/Y): 7/25/2017 13:55 Z 6:55 L


WIND DIRECT: 300

WIND SPEED: 0 KT

WIND CONDITIONS:

VISIBILTY: 10 SM 9999 M

TEMPERATURE: 67 F 19 C

DEW POINT: 59 F 15 C

ALTIMETER: A3001 Q1016

DENSITY ALT: 1800 FT

HUMID: 76%

LCL: 1,000-3,000 FT


RADIO CHECK: 0

ADVISORIES: 0

GREETINGS: 0

CONVERSATIONS: 0